createdAt,value
2023-02-08T00:02:30.474Z,24.50
2023-02-08T00:05:00.965Z,24.75
2023-02-08T00:07:32.290Z,29.00
2023-02-08T00:10:03.634Z,21.25
2023-02-08T00:12:37.003Z,23.50
2023-02-08T00:15:09.873Z,27.50
2023-02-08T00:17:40.701Z,15.50
2023-02-08T00:23:02.760Z,22.50
2023-02-08T00:25:33.746Z,26.50
2023-02-08T00:28:04.869Z,33.25
2023-02-08T00:30:35.688Z,24.00
2023-02-08T00:33:06.075Z,25.00
2023-02-08T00:35:38.412Z,36.50
2023-02-08T00:38:08.979Z,43.50
2023-02-08T00:40:39.994Z,38.75
2023-02-08T00:43:10.846Z,22.75
2023-02-08T00:45:41.527Z,35.50
2023-02-08T00:48:11.875Z,30.50
2023-02-08T00:50:42.546Z,44.25
2023-02-08T00:53:12.735Z,33.50
2023-02-08T00:55:42.996Z,46.50
2023-02-08T00:58:13.173Z,39.75
2023-02-08T01:00:44.207Z,30.75
2023-02-08T01:03:14.606Z,34.25
2023-02-08T01:05:45.493Z,18.50
2023-02-08T01:08:16.711Z,26.25
2023-02-08T01:10:47.516Z,42.00
2023-02-08T01:13:18.573Z,48.50
2023-02-08T01:15:49.166Z,57.75
2023-02-08T01:18:20.501Z,57.50
2023-02-08T01:20:50.726Z,43.00
2023-02-08T01:23:21.253Z,42.75
2023-02-08T01:25:51.691Z,43.00
2023-02-08T01:28:22.099Z,47.25
2023-02-08T01:30:52.762Z,51.00
2023-02-08T01:33:23.316Z,42.00
2023-02-08T01:35:56.077Z,19.00
2023-02-08T01:38:26.532Z,15.75
2023-02-08T01:40:56.810Z,12.75
2023-02-08T01:43:49.201Z,0.00
2023-02-08T01:46:19.623Z,16.00
2023-02-08T01:48:51.150Z,16.00
2023-02-08T01:51:24.290Z,19.50
2023-02-08T01:53:57.772Z,21.25
2023-02-08T01:56:30.931Z,23.50
2023-02-08T01:59:06.107Z,33.50
2023-02-08T02:01:38.937Z,28.75
2023-02-08T02:04:09.584Z,34.75
2023-02-08T02:06:43.250Z,41.00
2023-02-08T02:09:38.152Z,32.25
2023-02-08T02:12:10.067Z,46.50
2023-02-08T02:14:41.898Z,33.75
2023-02-08T02:17:13.942Z,45.50
2023-02-08T02:20:04.406Z,47.75
2023-02-08T02:22:59.206Z,43.00
2023-02-08T02:26:07.782Z,36.25
2023-02-08T02:28:50.038Z,60.25
2023-02-08T02:31:42.912Z,61.00
2023-02-08T02:34:19.137Z,58.25
2023-02-08T02:36:55.188Z,44.50
2023-02-08T02:39:34.396Z,61.50
2023-02-08T02:42:15.984Z,63.75
2023-02-08T02:44:49.419Z,67.75
2023-02-08T02:47:34.637Z,58.25
2023-02-08T02:53:05.063Z,65.50
2023-02-08T02:55:38.225Z,70.00
2023-02-08T02:58:11.439Z,78.75
2023-02-08T03:00:42.229Z,87.00
2023-02-08T03:03:21.767Z,83.00
2023-02-08T03:05:55.325Z,71.25
2023-02-08T03:09:02.078Z,68.50
2023-02-08T03:11:35.225Z,65.50
2023-02-08T03:14:25.160Z,68.00
2023-02-08T03:17:12.926Z,31.00
2023-02-08T03:20:00.836Z,28.00
2023-02-08T03:22:40.691Z,23.50
2023-02-08T03:25:14.172Z,24.00
2023-02-08T03:28:13.793Z,23.00
2023-02-08T03:33:54.019Z,26.25
2023-02-08T03:36:44.290Z,46.50
2023-02-08T03:39:17.609Z,78.75
2023-02-08T03:41:51.442Z,61.75
2023-02-08T03:44:30.659Z,36.00
2023-02-08T03:47:07.153Z,24.25
2023-02-08T03:49:39.474Z,29.00
2023-02-08T03:52:11.061Z,26.00
2023-02-08T03:54:44.216Z,23.50
2023-02-08T03:57:17.696Z,22.00
2023-02-08T03:59:51.012Z,20.50
2023-02-08T04:02:24.269Z,53.50
2023-02-08T04:04:56.234Z,64.25
2023-02-08T04:07:26.691Z,57.75
2023-02-08T04:09:58.553Z,60.50
2023-02-08T04:12:28.866Z,61.25
2023-02-08T04:14:59.273Z,60.50
2023-02-08T04:17:29.672Z,55.00
2023-02-08T04:20:00.182Z,63.50
2023-02-08T04:22:30.557Z,62.75
2023-02-08T04:25:01.263Z,59.75
2023-02-08T04:27:32.842Z,51.00
2023-02-08T04:30:04.778Z,56.50
2023-02-08T04:32:35.714Z,60.50
2023-02-08T04:35:06.648Z,65.25
2023-02-08T04:37:37.541Z,70.25
2023-02-08T04:40:08.776Z,62.75
2023-02-08T04:42:39.343Z,69.50
2023-02-08T04:45:10.815Z,64.25
2023-02-08T04:47:41.150Z,69.00
2023-02-08T04:50:11.638Z,68.50
2023-02-08T04:52:47.989Z,52.25
2023-02-08T04:55:18.521Z,62.00
2023-02-08T04:57:50.092Z,61.00
2023-02-08T05:00:20.650Z,68.00
2023-02-08T05:02:55.980Z,77.50
2023-02-08T05:05:27.953Z,74.75
2023-02-08T05:07:59.661Z,80.50
2023-02-08T05:10:30.297Z,80.25
2023-02-08T05:13:00.750Z,78.50
2023-02-08T05:15:32.011Z,73.50
2023-02-08T05:18:02.710Z,75.75
2023-02-08T05:20:33.632Z,76.25
2023-02-08T05:23:05.162Z,82.75
2023-02-08T05:25:38.099Z,91.50
2023-02-08T05:28:08.797Z,56.50
2023-02-08T05:30:40.471Z,87.25
2023-02-08T05:33:14.656Z,62.25
2023-02-08T05:35:46.029Z,54.50
2023-02-08T05:38:21.939Z,61.50
2023-02-08T05:40:50.082Z,61.00
2023-02-08T05:43:20.320Z,47.25
2023-02-08T05:45:51.481Z,56.50
2023-02-08T05:48:21.752Z,81.00
2023-02-08T05:50:52.091Z,81.50
2023-02-08T05:53:22.582Z,80.00
2023-02-08T05:55:54.771Z,68.25
2023-02-08T05:58:25.455Z,53.75
2023-02-08T06:00:56.861Z,63.50
2023-02-08T06:03:28.255Z,65.00
2023-02-08T06:06:00.782Z,50.00
2023-02-08T06:08:31.013Z,44.25
2023-02-08T06:11:01.320Z,18.50
2023-02-08T06:13:32.230Z,20.00
2023-02-08T06:16:02.651Z,17.00
2023-02-08T06:18:33.371Z,23.00
2023-02-08T06:21:03.645Z,29.75
2023-02-08T06:23:34.458Z,24.75
2023-02-08T06:26:05.639Z,22.00
2023-02-08T06:28:36.841Z,20.00
2023-02-08T06:31:07.310Z,18.25
2023-02-08T06:33:38.774Z,25.50
2023-02-08T06:36:09.274Z,28.50
2023-02-08T06:38:44.837Z,29.00
2023-02-08T06:41:13.576Z,40.25
2023-02-08T06:43:43.936Z,41.25
2023-02-08T06:46:14.208Z,53.75
2023-02-08T06:48:45.374Z,40.75
2023-02-08T06:51:15.729Z,34.00
2023-02-08T06:53:46.205Z,66.75
2023-02-08T06:56:19.104Z,54.00
2023-02-08T06:58:50.098Z,66.25
2023-02-08T07:01:23.676Z,64.50
2023-02-08T07:03:54.141Z,64.25
2023-02-08T07:06:26.057Z,66.50
2023-02-08T07:08:58.502Z,59.00
2023-02-08T07:11:28.971Z,51.75
2023-02-08T07:14:02.515Z,48.50
2023-02-08T07:16:56.730Z,34.00
2023-02-08T07:19:27.675Z,40.75
2023-02-08T07:21:59.319Z,38.50
2023-02-08T07:24:29.664Z,47.50
2023-02-08T07:27:01.228Z,44.25
2023-02-08T07:29:33.834Z,33.50
2023-02-08T07:32:06.445Z,39.00
2023-02-08T07:34:41.307Z,24.25
2023-02-08T07:37:14.356Z,31.25
2023-02-08T07:39:48.170Z,22.25
2023-02-08T07:42:18.972Z,53.50
2023-02-08T07:44:49.294Z,31.75
2023-02-08T07:47:19.604Z,28.50
2023-02-08T07:49:59.706Z,33.75
2023-02-08T07:52:30.902Z,30.00
2023-02-08T07:55:04.050Z,32.00
2023-02-08T07:57:35.552Z,36.00
2023-02-08T08:00:07.651Z,37.50
2023-02-08T08:02:38.908Z,30.50
2023-02-08T08:05:10.739Z,39.25
2023-02-08T08:07:43.344Z,35.75
2023-02-08T08:10:14.231Z,33.75
2023-02-08T08:12:45.676Z,30.25
2023-02-08T08:15:19.068Z,25.00
2023-02-08T08:17:49.820Z,30.00
2023-02-08T08:20:20.988Z,28.00
2023-02-08T08:22:51.570Z,33.25
2023-02-08T08:25:21.976Z,44.00
2023-02-08T08:27:53.507Z,77.75
2023-02-08T08:30:25.696Z,75.75
2023-02-08T08:32:56.241Z,83.25
2023-02-08T08:35:28.122Z,51.00
2023-02-08T08:37:59.226Z,27.00
2023-02-08T08:40:29.555Z,25.25
2023-02-08T08:43:00.389Z,25.50
2023-02-08T08:45:31.081Z,31.00
2023-02-08T08:48:01.593Z,27.50
2023-02-08T08:50:37.691Z,31.25
2023-02-08T08:53:09.159Z,64.00
2023-02-08T08:55:59.403Z,48.50
2023-02-08T08:59:05.443Z,19.75
2023-02-08T09:01:57.457Z,28.00
2023-02-08T09:04:12.508Z,30.25
2023-02-08T09:06:45.453Z,28.50
2023-02-08T09:09:20.550Z,25.50
2023-02-08T09:11:55.671Z,26.75
2023-02-08T09:17:08.991Z,35.00
2023-02-08T09:19:36.372Z,15.25
2023-02-08T09:22:17.339Z,24.50
2023-02-08T09:24:49.466Z,29.25
2023-02-08T09:27:23.377Z,19.75
2023-02-08T09:29:59.820Z,23.00
2023-02-08T09:32:27.139Z,29.50
2023-02-08T09:35:00.331Z,24.50
2023-02-08T09:37:32.197Z,30.50
2023-02-08T09:40:03.566Z,32.00
2023-02-08T09:42:49.196Z,26.25
2023-02-08T09:45:59.799Z,27.00
2023-02-08T09:48:32.875Z,20.25
2023-02-08T09:56:52.915Z,25.25
2023-02-08T09:59:46.459Z,22.75
2023-02-08T10:02:55.932Z,22.00
2023-02-08T10:05:30.365Z,23.75
2023-02-08T10:08:02.167Z,25.00
2023-02-08T10:10:41.835Z,20.25
2023-02-08T10:13:41.323Z,17.25
2023-02-08T10:16:28.027Z,23.50
2023-02-08T10:19:18.063Z,24.75
2023-02-08T10:22:06.372Z,23.00
2023-02-08T10:24:43.157Z,26.75
2023-02-08T10:27:26.953Z,24.25
2023-02-08T10:30:09.081Z,26.00
2023-02-08T10:33:03.330Z,25.75
2023-02-08T10:35:39.603Z,24.75
2023-02-08T10:41:02.114Z,26.50
2023-02-08T10:43:43.818Z,24.00
2023-02-08T10:46:38.029Z,21.75
2023-02-08T10:49:31.520Z,23.25
2023-02-08T10:52:02.137Z,28.50
2023-02-08T10:54:35.009Z,25.75
2023-02-08T10:57:22.212Z,25.25
2023-02-08T10:59:58.218Z,26.25
2023-02-08T11:02:34.652Z,29.00
2023-02-08T11:05:09.911Z,20.25
2023-02-08T11:07:41.492Z,23.00
2023-02-08T11:10:24.482Z,22.50
2023-02-08T11:13:19.486Z,29.00
2023-02-08T11:15:52.687Z,20.25
2023-02-08T11:18:31.964Z,23.25
2023-02-08T11:21:07.012Z,28.75
2023-02-08T11:23:40.617Z,33.50
2023-02-08T11:26:25.646Z,24.50
2023-02-08T11:29:07.768Z,27.25
2023-02-08T11:31:42.824Z,22.50
2023-02-08T11:34:13.353Z,22.50
2023-02-08T11:36:48.465Z,22.75
2023-02-08T11:39:54.985Z,30.75
2023-02-08T11:42:28.300Z,23.50
2023-02-08T11:44:59.545Z,29.50
2023-02-08T11:47:38.637Z,18.75
2023-02-08T11:50:15.713Z,20.75
2023-02-08T11:52:49.167Z,19.50
2023-02-08T11:55:25.179Z,23.00
2023-02-08T11:58:13.638Z,24.50
2023-02-08T12:00:47.917Z,20.00
2023-02-08T12:03:38.636Z,19.25
2023-02-08T12:06:31.779Z,14.00
2023-02-08T12:09:41.773Z,21.00
2023-02-08T12:15:35.901Z,27.25
2023-02-08T12:21:18.921Z,21.75
2023-02-08T12:24:07.667Z,25.75
2023-02-08T12:26:56.438Z,16.00
2023-02-08T12:29:46.948Z,24.50
2023-02-08T12:32:27.105Z,18.25
2023-02-08T12:35:43.322Z,23.75
2023-02-08T12:38:23.609Z,19.00
2023-02-08T12:41:11.618Z,17.00
2023-02-08T12:44:02.559Z,18.75
2023-02-08T12:46:45.358Z,11.50
2023-02-08T12:49:33.510Z,19.00
2023-02-08T12:52:37.014Z,26.50
2023-02-08T12:55:17.828Z,26.00
2023-02-08T12:57:51.844Z,35.50
2023-02-08T13:00:37.906Z,30.75
2023-02-08T13:03:16.719Z,40.25
2023-02-08T13:06:01.552Z,28.00
2023-02-08T13:09:09.450Z,40.25
2023-02-08T13:11:46.338Z,23.00
2023-02-08T13:14:42.237Z,22.25
2023-02-08T13:17:18.439Z,24.75
2023-02-08T13:20:06.296Z,25.25
2023-02-08T13:22:39.606Z,22.00
2023-02-08T13:28:28.773Z,12.50
2023-02-08T13:31:02.529Z,21.75
2023-02-08T13:33:36.255Z,23.00
2023-02-08T13:36:13.368Z,20.50
2023-02-08T13:38:47.654Z,19.00
2023-02-08T13:41:21.181Z,18.75
2023-02-08T13:43:58.011Z,21.50
2023-02-08T13:46:31.722Z,21.25
2023-02-08T13:51:59.725Z,22.25
2023-02-08T13:54:30.920Z,26.25
2023-02-08T13:57:01.525Z,24.50
2023-02-08T13:59:47.573Z,16.00
2023-02-08T14:02:21.196Z,18.00
2023-02-08T14:04:57.875Z,18.75
2023-02-08T14:07:43.706Z,16.75
2023-02-08T14:10:19.747Z,18.75
2023-02-08T14:15:38.360Z,22.50
2023-02-08T14:18:29.263Z,20.75
2023-02-08T14:21:05.093Z,27.00
2023-02-08T14:23:40.741Z,28.00
2023-02-08T14:26:17.364Z,38.50
2023-02-08T14:28:49.427Z,23.50
2023-02-08T14:31:23.571Z,35.50
2023-02-08T14:33:57.750Z,41.25
2023-02-08T14:36:33.933Z,30.25
2023-02-08T14:39:28.296Z,42.00
2023-02-08T14:42:22.465Z,41.50
2023-02-08T14:45:00.452Z,39.50
2023-02-08T14:47:57.781Z,37.50
2023-02-08T14:50:31.268Z,17.50
2023-02-08T14:53:07.784Z,44.00
2023-02-08T14:56:10.784Z,46.00
2023-02-08T14:58:43.634Z,34.75
2023-02-08T15:01:29.550Z,29.75
2023-02-08T15:04:03.453Z,43.25
2023-02-08T15:06:50.154Z,39.25
2023-02-08T15:09:27.054Z,41.00
2023-02-08T15:12:10.875Z,45.00
2023-02-08T15:14:45.293Z,45.50
2023-02-08T15:17:36.844Z,36.50
2023-02-08T15:20:10.870Z,32.50
2023-02-08T15:22:43.649Z,47.00
2023-02-08T15:25:34.289Z,41.00
2023-02-08T15:28:19.738Z,34.50
2023-02-08T15:31:09.241Z,41.00
2023-02-08T15:33:43.511Z,34.00
2023-02-08T15:36:31.784Z,24.50
2023-02-08T15:39:23.338Z,34.50
2023-02-08T15:42:22.223Z,38.00
2023-02-08T15:45:00.944Z,37.50
2023-02-08T15:47:37.222Z,23.25
2023-02-08T15:50:11.123Z,36.50
2023-02-08T15:52:42.670Z,44.00
2023-02-08T15:55:21.824Z,31.50
2023-02-08T15:58:26.430Z,39.50
2023-02-08T16:01:02.516Z,44.25
2023-02-08T16:03:53.962Z,35.50
2023-02-08T16:06:28.706Z,36.00
2023-02-08T16:09:02.689Z,42.25
2023-02-08T16:11:38.722Z,32.50
2023-02-08T16:14:16.699Z,38.25
2023-02-08T16:16:52.806Z,24.00
2023-02-08T16:19:31.487Z,30.75
2023-02-08T16:22:25.903Z,28.50
2023-02-08T16:25:08.514Z,35.00
2023-02-08T16:30:24.536Z,25.75
2023-02-08T16:32:55.693Z,25.75
2023-02-08T16:35:31.790Z,28.25
2023-02-08T16:38:05.020Z,28.75
2023-02-08T16:40:53.554Z,29.25
2023-02-08T16:43:31.882Z,28.50
2023-02-08T16:46:35.298Z,25.50
2023-02-08T16:49:21.086Z,31.25
2023-02-08T16:52:00.890Z,27.50
2023-02-08T16:54:34.045Z,21.25
2023-02-08T16:57:08.053Z,24.25
2023-02-08T16:59:40.659Z,19.00
2023-02-08T17:02:12.969Z,25.00
2023-02-08T17:04:45.146Z,27.00
2023-02-08T17:07:20.478Z,30.00
2023-02-08T17:09:51.264Z,22.75
2023-02-08T17:12:25.085Z,24.00
2023-02-08T17:14:58.339Z,24.75
2023-02-08T17:17:29.410Z,28.25
2023-02-08T17:20:07.144Z,29.00
2023-02-08T17:22:38.872Z,26.25
2023-02-08T17:25:12.575Z,25.00
2023-02-08T17:27:43.861Z,30.25
2023-02-08T17:30:19.779Z,30.25
2023-02-08T17:33:13.672Z,24.50
2023-02-08T17:36:07.452Z,26.75
2023-02-08T17:38:29.747Z,26.75
2023-02-08T17:41:12.160Z,32.25
2023-02-08T17:43:44.306Z,28.25
2023-02-08T17:46:25.667Z,36.00
2023-02-08T17:49:00.260Z,25.25
2023-02-08T17:51:32.038Z,18.50
2023-02-08T17:54:10.284Z,23.50
2023-02-08T17:56:56.321Z,25.00
2023-02-08T17:59:25.585Z,25.75
2023-02-08T18:01:58.729Z,27.25
2023-02-08T18:04:41.076Z,23.75
2023-02-08T18:07:18.167Z,30.25
2023-02-08T18:10:10.694Z,25.00
2023-02-08T18:29:23.702Z,29.50
2023-02-08T18:31:59.106Z,20.50
2023-02-08T18:34:35.586Z,25.00
2023-02-08T18:37:30.838Z,26.75
2023-02-08T18:40:04.904Z,27.00
2023-02-08T18:42:43.251Z,33.00
2023-02-08T18:45:12.371Z,24.75
2023-02-08T18:47:57.330Z,29.75
2023-02-08T18:50:25.227Z,42.50
2023-02-08T18:53:00.879Z,24.50
2023-02-08T18:55:44.605Z,28.25
2023-02-08T18:58:20.644Z,30.25
2023-02-08T19:04:17.281Z,35.00
2023-02-08T19:06:47.921Z,24.00
2023-02-08T19:09:41.048Z,25.25
2023-02-08T19:12:14.020Z,25.75
2023-02-08T19:15:07.958Z,24.00
2023-02-08T19:17:49.303Z,26.75
2023-02-08T19:20:42.093Z,28.00
2023-02-08T19:23:21.194Z,22.75
2023-02-08T19:25:53.385Z,23.00
2023-02-08T19:28:25.816Z,26.25
2023-02-08T19:31:17.539Z,30.25
2023-02-08T19:37:10.718Z,30.50
2023-02-08T19:39:45.590Z,25.25
2023-02-08T19:42:28.793Z,29.75
2023-02-08T19:59:32.212Z,33.50
2023-02-08T20:02:02.061Z,33.00
2023-02-08T20:04:39.523Z,27.75
2023-02-08T20:07:12.554Z,26.75
2023-02-08T20:09:45.221Z,31.00
2023-02-08T20:12:17.747Z,25.75
2023-02-08T20:14:54.210Z,12.50
2023-02-08T20:17:27.599Z,24.00
2023-02-08T20:19:59.516Z,26.00
2023-02-08T20:22:30.655Z,23.75
2023-02-08T20:25:09.601Z,30.50
2023-02-08T20:27:39.495Z,22.75
2023-02-08T20:30:16.273Z,18.25
2023-02-08T20:32:47.392Z,21.25
2023-02-08T20:35:21.959Z,27.50
2023-02-08T20:37:56.712Z,27.50
2023-02-08T20:40:36.238Z,21.50
2023-02-08T20:43:11.292Z,20.50
2023-02-08T20:45:43.264Z,23.00
2023-02-08T20:48:16.908Z,29.50
2023-02-08T20:50:49.119Z,23.75
2023-02-08T20:53:20.523Z,15.75
2023-02-08T20:55:54.690Z,25.25
2023-02-08T20:58:27.248Z,22.25
2023-02-08T21:01:08.135Z,19.75
2023-02-08T21:03:37.797Z,12.50
2023-02-08T21:06:17.282Z,19.50
2023-02-08T21:08:49.065Z,23.25
2023-02-08T21:11:43.556Z,15.25
2023-02-08T21:14:19.215Z,18.75
2023-02-08T21:16:59.853Z,23.50
2023-02-08T21:19:31.751Z,13.00
2023-02-08T21:22:05.536Z,15.50
2023-02-08T21:25:03.966Z,19.50
2023-02-08T21:27:35.148Z,13.00
2023-02-08T21:30:07.350Z,21.50
2023-02-08T21:32:38.024Z,20.50
2023-02-08T21:35:11.788Z,13.00
2023-02-08T21:37:43.410Z,23.25
2023-02-08T21:40:16.652Z,14.00
2023-02-08T21:46:08.258Z,58.75
2023-02-08T21:48:40.668Z,56.00
2023-02-08T21:51:13.701Z,57.75
2023-02-08T21:53:44.128Z,76.40
2023-02-08T21:56:14.994Z,98.20
2023-02-08T21:58:45.387Z,99.80
2023-02-08T22:01:17.481Z,100.80
2023-02-08T22:03:47.931Z,108.80
2023-02-08T22:06:18.374Z,97.80
2023-02-08T22:08:50.402Z,95.40
2023-02-08T22:11:20.733Z,80.20
2023-02-08T22:13:51.197Z,85.80
2023-02-08T22:16:21.653Z,98.80
2023-02-08T22:18:52.506Z,94.00
2023-02-08T22:21:23.136Z,110.25
2023-02-08T22:23:53.952Z,140.80
2023-02-08T22:26:24.559Z,160.40
2023-02-08T22:28:55.067Z,190.40
2023-02-08T22:31:26.294Z,194.80
2023-02-08T22:33:57.044Z,238.75
2023-02-08T22:36:27.850Z,249.00
2023-02-08T22:38:58.293Z,240.75
2023-02-08T22:41:28.653Z,245.75
2023-02-08T22:43:59.124Z,250.25
2023-02-08T22:46:29.670Z,232.80
2023-02-08T22:48:59.802Z,246.50
2023-02-08T22:51:31.168Z,263.00
2023-02-08T22:54:01.807Z,248.00
2023-02-08T22:56:32.393Z,225.50
2023-02-08T22:59:02.700Z,232.60
2023-02-08T23:01:34.056Z,155.60
2023-02-08T23:04:10.372Z,97.50
2023-02-08T23:06:40.824Z,79.50
2023-02-08T23:09:12.345Z,43.75
2023-02-08T23:11:42.746Z,19.50
2023-02-08T23:14:16.236Z,21.25
2023-02-08T23:16:49.908Z,20.25
2023-02-08T23:19:20.148Z,21.50
2023-02-08T23:21:57.782Z,39.75
2023-02-08T23:24:28.880Z,70.75
2023-02-08T23:26:59.197Z,131.80
2023-02-08T23:29:30.574Z,155.40
2023-02-08T23:32:04.496Z,198.60
2023-02-08T23:34:36.448Z,221.20
2023-02-08T23:37:07.100Z,198.75
2023-02-08T23:39:37.535Z,222.50
2023-02-08T23:42:08.228Z,264.80
2023-02-08T23:44:38.661Z,256.75
2023-02-08T23:47:11.817Z,232.60
2023-02-08T23:49:55.000Z,236.60
2023-02-08T23:52:59.936Z,230.20
2023-02-08T23:55:30.234Z,249.25
2023-02-08T23:58:01.119Z,250.60
